Trepassey, Canada
Current Conditions -  °F | °C
As of 5:00 PM on Thursday 23 Oct 2014 (Local Time) from CYYT Reporting Station
Broken Clouds Broken Clouds  
Wind Chill: 41°   Ceiling: 1000
Heat Index: 46°   Visibility: 15mi
Dew Point: 43°   Wind: 10mph
Humidity: 87%   Direction: 130°SE
Pressure: 30.29"   Gusts: NA
Location:  46.73°N, 53.37°W
Report Text: CYYT 231900Z 13009KT 15SM BKN010 BKN130 08/06 A3029 RMK SC5AC2 SLP262
Loading
Personal Weather Stations






























Interactive Weather Map
Tropical Storm Tracking
New forecast layout! Learn more

10-Day Weather Forecast

Advertisements
Track Severe Weather on mobile